Country
Station

 

Weather  for  Hamburg-Finkenwerder  -  Germany    Germany

  
20 °C (68 °F)
    
 
 

Current METAR for Hamburg-Finkenwerder is :

EDHI 021120Z 26006KT 230V300 9999 FEW044 SCT050 20/15 Q1009

 

This is a report for Hamburg-Finkenwerder - Germany.
 
The report was made 26 minutes ago, at 11:20 UTC .
The wind was blowing at a speed of 3.1 meters per second (6.9 miles per hour) from west (260°), varying between southwest (230°) and west/northwest (300°).
 
The temperature was 20 °C (68 °F), with a dew-point at 15 °C (59 °F).
The atmospheric pressure was 1009 hPa (29.80 inHg).
The relative humidity was 72.9%.
 
There were a few clouds at a height of 1341 meters (4400 feet) and scattered clouds at a height of 1524 meters (5000 feet).
 
The overall visibility was greater than 10 kilometers (6.2 miles).
 

 
 
 
 

Country :   A   B   C   D   E   F   G   H   I   J   K   L   M   N   O   P   Q   R   S   T   U   V   W   Y   Z

 

Site Info  |  Disclaimer  |  Credits  |  Privacy
Contact us  |  Add to favorites
© 2013-2020 METARs - All rights reserved